首页
METAR-TAF:

METAR-TAF

机场 :

布萊茲諾頓皇家空軍基地

Brize Norton, 英格兰

纬度: 51-45N, 经度: 001-35W, 海拔: 88米

当前天气观测

该预报发布于33分钟前的20:50 UTC
风速9节,风向北转东北
温度 10°C
湿度 87%
气压 1002 hPa
能见度10公里或以上
少量云层高于2800英尺, 积雨云.
散云层高于3800英尺
多云层高于5000英尺

METAR: EGVN 062050Z 02009KT 9999 FEW028CB SCT038 BKN050 10/08 Q1002 NOSIG RMK BLU BLU

时间: 22:23 (21:23 UTC)

预报

该预报发布于1小时和48分钟前的19:35 UTC
预报有效从06日的 21点(UTC)到 07日的 21点(UTC)
风速10节,风向西转西北
能见度10公里或以上
散云层高于3500英尺
几率 30% :
短暂存在
从 07日的 15点(UTC)到 07日的 19点(UTC)
能見度: 7000
散云层高于2200英尺
阵雨

TAF: EGVN 061935Z 0621/0721 30010KT 9999 SCT035 PROB30 TEMPO 0715/0719 7000 SHRA SCT022

超过4000个机场的气象观测和天气预报(METAR&TAF报告)。

可查询的气象台以黄色和红色小点在地图上表示。

将鼠标移到小点上方,可查看气象台名称。

然后点击查看天气观测和预报。

如需切换地图:点击带黑十字的绿色按钮放大地图;点击带横线的绿色按钮缩小地图;或者点击绿色箭头查看邻近地区的地图。


METAR-TAF: